Time;durP1;ratioP1;P1;durP2;ratioP2;P2;SDS_P1;SDS_P2;PMS_P1;PMS_P2;Temp;Humidity;BMP_temperature;BMP_pressure;BME280_temperature;BME280_humidity;BME280_pressure;Samples;Min_cycle;Max_cycle;Signal;HPM_P1;HPM_P2
2021/01/05 00:02:14;;;;;;;19.70;14.10;;;2.70;99.90;;;;;;5034419;28;20547;-73
2021/01/05 00:04:40;;;;;;;15.90;12.70;;;2.50;99.90;;;;;;5034191;28;20194;-73
2021/01/05 00:07:06;;;;;;;18.30;14.27;;;2.40;99.90;;;;;;5034456;28;20666;-74
2021/01/05 00:09:32;;;;;;;19.92;13.73;;;2.40;99.90;;;;;;5034303;28;20179;-73
2021/01/05 00:12:05;;;;;;;18.67;13.55;;;2.50;99.90;;;;;;5034262;28;20185;-74
2021/01/05 00:14:30;;;;;;;20.25;14.63;;;2.40;99.90;;;;;;5033696;28;20212;-73
2021/01/05 00:16:56;;;;;;;23.00;13.27;;;2.50;99.90;;;;;;5034080;28;20202;-74
2021/01/05 00:19:24;;;;;;;19.00;14.20;;;2.40;99.90;;;;;;5034142;28;20178;-73
2021/01/05 00:21:51;;;;;;;18.65;12.98;;;2.30;99.90;;;;;;5033990;28;20427;-73
2021/01/05 00:24:17;;;;;;;20.90;15.20;;;2.40;99.90;;;;;;5033486;28;20202;-72
2021/01/05 00:26:42;;;;;;;18.33;13.43;;;2.50;99.90;;;;;;5033929;28;20277;-72
2021/01/05 00:29:10;;;;;;;21.60;14.97;;;2.50;99.90;;;;;;5033996;28;20409;-73
2021/01/05 00:31:36;;;;;;;21.48;16.17;;;2.30;99.90;;;;;;5034113;28;20261;-74
2021/01/05 00:34:03;;;;;;;18.25;12.85;;;2.40;99.90;;;;;;5033433;28;20585;-74
2021/01/05 00:36:28;;;;;;;16.65;12.88;;;2.60;99.90;;;;;;5032365;28;20202;-73
2021/01/05 00:38:54;;;;;;;19.13;14.53;;;2.40;99.90;;;;;;5032548;28;20271;-73
2021/01/05 00:41:20;;;;;;;18.05;14.07;;;2.30;99.90;;;;;;5032370;28;20198;-74
2021/01/05 00:43:49;;;;;;;18.80;14.40;;;2.30;99.90;;;;;;5033347;28;20194;-74
2021/01/05 00:46:16;;;;;;;17.33;13.30;;;2.30;99.90;;;;;;5033550;28;20177;-72
2021/01/05 00:48:42;;;;;;;15.90;12.48;;;2.40;99.90;;;;;;5032528;28;20636;-72
2021/01/05 00:51:09;;;;;;;17.30;13.30;;;2.30;99.90;;;;;;5033883;28;20179;-73
2021/01/05 00:53:34;;;;;;;20.65;15.45;;;2.30;99.90;;;;;;5033374;28;20450;-73
2021/01/05 00:56:00;;;;;;;19.53;13.90;;;2.30;99.90;;;;;;5032242;28;20218;-74
2021/01/05 00:58:26;;;;;;;18.67;12.65;;;2.40;99.90;;;;;;5033518;28;20554;-72
2021/01/05 01:00:52;;;;;;;19.47;13.90;;;2.50;99.90;;;;;;5033377;28;20170;-73
2021/01/05 01:03:18;;;;;;;18.23;14.60;;;2.50;99.90;;;;;;5032579;28;20631;-73
2021/01/05 01:05:44;;;;;;;18.00;13.45;;;2.60;99.90;;;;;;5033303;28;20267;-73
2021/01/05 01:08:10;;;;;;;20.27;14.40;;;2.30;99.90;;;;;;5032154;28;20270;-73
2021/01/05 01:10:36;;;;;;;20.80;14.27;;;2.20;99.90;;;;;;5033207;28;20240;-73
2021/01/05 01:13:02;;;;;;;19.30;14.67;;;2.20;99.90;;;;;;5032898;28;20660;-73
2021/01/05 01:15:28;;;;;;;19.48;14.02;;;2.40;99.90;;;;;;5033229;28;20705;-73
2021/01/05 01:17:54;;;;;;;20.00;14.53;;;2.30;99.90;;;;;;5033195;28;20185;-73
2021/01/05 01:20:20;;;;;;;18.93;13.50;;;2.40;99.90;;;;;;5033168;28;20412;-74
2021/01/05 01:22:45;;;;;;;21.42;14.48;;;2.40;99.90;;;;;;5032974;28;20177;-74
2021/01/05 01:25:11;;;;;;;19.70;13.80;;;2.50;99.90;;;;;;5032949;28;20197;-74
2021/01/05 01:27:37;;;;;;;18.43;13.87;;;2.50;99.90;;;;;;5031889;28;20183;-73
2021/01/05 01:30:05;;;;;;;17.43;13.73;;;2.60;99.90;;;;;;5033163;28;20176;-74
2021/01/05 01:32:31;;;;;;;21.02;14.90;;;2.50;99.90;;;;;;5033098;28;20175;-74
2021/01/05 01:34:56;;;;;;;20.70;14.57;;;2.40;99.90;;;;;;5032477;28;20247;-73
2021/01/05 01:37:22;;;;;;;18.47;13.57;;;2.30;99.90;;;;;;5033050;28;20208;-72
2021/01/05 01:39:48;;;;;;;20.17;14.10;;;2.40;99.90;;;;;;5033232;28;20177;-73
2021/01/05 01:42:16;;;;;;;19.03;13.10;;;2.50;99.90;;;;;;5033152;28;20239;-73
2021/01/05 01:44:43;;;;;;;21.45;15.07;;;2.40;99.90;;;;;;5032800;28;20512;-72
2021/01/05 01:47:23;;;;;;;20.35;13.45;;;2.60;99.90;;;;;;5032908;28;20278;-73
2021/01/05 01:49:53;;;;;;;21.13;13.77;;;2.40;99.90;;;;;;5033143;28;20318;-72
2021/01/05 01:52:44;;;;;;;20.67;14.35;;;2.40;99.90;;;;;;5032900;28;20627;-74
2021/01/05 01:55:37;;;;;;;20.58;14.50;;;2.40;99.90;;;;;;5032540;28;20236;-73
2021/01/05 01:58:11;;;;;;;21.55;14.48;;;2.60;99.90;;;;;;5032846;28;20184;-74
2021/01/05 02:01:01;;;;;;;18.85;13.90;;;2.70;99.90;;;;;;5032942;28;20173;-73
2021/01/05 02:04:01;;;;;;;20.92;14.48;;;2.70;99.90;;;;;;5032540;28;20291;-72
2021/01/05 02:06:54;;;;;;;20.00;14.48;;;2.90;99.90;;;;;;5032903;28;20597;-73
2021/01/05 02:09:54;;;;;;;18.55;13.80;;;2.80;99.90;;;;;;5032756;28;20192;-73
2021/01/05 02:12:47;;;;;;;17.77;13.30;;;2.70;99.90;;;;;;5032801;28;20170;-73
2021/01/05 02:15:28;;;;;;;20.80;13.32;;;2.70;99.90;;;;;;5034679;28;20197;-73
2021/01/05 02:18:33;;;;;;;18.55;12.73;;;2.50;99.90;;;;;;5036570;28;20177;-74
2021/01/05 02:21:04;;;;;;;19.90;13.90;;;2.50;99.90;;;;;;5036348;28;20173;-72
2021/01/05 02:24:07;;;;;;;23.17;15.15;;;2.40;99.90;;;;;;5035804;28;20192;-73
2021/01/05 02:26:41;;;;;;;18.00;13.18;;;2.40;99.90;;;;;;5036430;28;20258;-73
2021/01/05 02:29:13;;;;;;;20.98;13.57;;;2.40;99.90;;;;;;5036148;28;20173;-74
2021/01/05 02:32:14;;;;;;;20.98;14.68;;;2.40;99.90;;;;;;5036132;28;20188;-74
2021/01/05 02:34:58;;;;;;;20.30;15.10;;;2.30;99.90;;;;;;5035811;28;20336;-73
2021/01/05 02:37:41;;;;;;;16.92;12.27;;;2.40;99.90;;;;;;5035878;28;20223;-73
2021/01/05 02:40:22;;;;;;;20.38;14.35;;;2.50;99.90;;;;;;5036115;28;20583;-73
2021/01/05 02:43:22;;;;;;;20.35;15.07;;;2.60;99.90;;;;;;5035834;28;20529;-73
2021/01/05 02:46:16;;;;;;;22.05;15.32;;;2.60;99.90;;;;;;5034685;28;20181;-73
2021/01/05 02:48:52;;;;;;;19.92;15.20;;;2.60;99.90;;;;;;5026244;28;20217;-73
2021/01/05 02:51:54;;;;;;;19.13;14.30;;;2.60;99.90;;;;;;5035841;28;20178;-75
2021/01/05 02:54:41;;;;;;;19.70;14.40;;;2.60;99.90;;;;;;5035616;28;20200;-72
2021/01/05 02:57:33;;;;;;;22.85;15.07;;;2.40;99.90;;;;;;5035951;28;20215;-74
2021/01/05 03:00:17;;;;;;;24.25;15.55;;;2.40;99.90;;;;;;5035711;28;20184;-73
2021/01/05 03:03:20;;;;;;;21.42;14.52;;;2.30;99.90;;;;;;5035682;28;20242;-74
2021/01/05 03:06:09;;;;;;;20.98;14.20;;;2.30;99.90;;;;;;5035566;28;20184;-72
2021/01/05 03:08:46;;;;;;;21.90;14.68;;;2.40;99.90;;;;;;5035681;28;20188;-73
2021/01/05 03:11:17;;;;;;;22.30;15.18;;;2.50;99.90;;;;;;5035450;28;20239;-72
2021/01/05 03:13:52;;;;;;;22.63;15.95;;;2.70;99.90;;;;;;5034949;28;20604;-73
2021/01/05 03:16:26;;;;;;;23.52;15.75;;;2.90;99.90;;;;;;5035344;28;20201;-73
2021/01/05 03:19:29;;;;;;;22.00;14.55;;;2.60;99.90;;;;;;5035506;28;20204;-74
2021/01/05 03:22:00;;;;;;;20.17;14.07;;;2.40;99.90;;;;;;5035138;28;20194;-73
2021/01/05 03:24:28;;;;;;;23.88;15.32;;;2.40;99.90;;;;;;5034850;28;20197;-73
2021/01/05 03:26:55;;;;;;;22.70;14.20;;;2.50;99.90;;;;;;5034709;28;20226;-73
2021/01/05 03:29:22;;;;;;;23.13;15.13;;;2.50;99.90;;;;;;5035109;28;20261;-73
2021/01/05 03:32:00;;;;;;;19.45;14.95;;;2.60;99.90;;;;;;5034958;28;20593;-74
2021/01/05 03:34:25;;;;;;;20.23;15.27;;;2.50;99.90;;;;;;5034709;28;20244;-73
2021/01/05 03:36:51;;;;;;;23.33;14.60;;;2.50;99.90;;;;;;5035006;28;20759;-73
2021/01/05 03:39:17;;;;;;;22.27;14.52;;;2.50;99.90;;;;;;5034907;28;20675;-72
2021/01/05 03:41:43;;;;;;;21.57;15.10;;;2.40;99.90;;;;;;5033560;28;20192;-74
2021/01/05 03:44:09;;;;;;;24.58;15.38;;;2.50;99.90;;;;;;5034519;28;20203;-74
2021/01/05 03:46:35;;;;;;;23.70;15.60;;;2.40;99.90;;;;;;5034961;28;20177;-74
2021/01/05 03:49:01;;;;;;;21.90;15.30;;;2.30;99.90;;;;;;5035206;28;20445;-73
2021/01/05 03:51:26;;;;;;;25.27;13.97;;;2.30;99.90;;;;;;5034919;28;20416;-72
2021/01/05 03:53:52;;;;;;;28.17;17.63;;;2.50;99.90;;;;;;5033178;28;20207;-73
2021/01/05 03:56:18;;;;;;;21.63;14.87;;;2.60;99.90;;;;;;5034917;28;20199;-74
2021/01/05 03:58:43;;;;;;;22.30;14.30;;;2.50;99.90;;;;;;5034692;28;20416;-73
2021/01/05 04:01:09;;;;;;;20.87;15.17;;;2.50;99.90;;;;;;5034567;28;20408;-74
2021/01/05 04:03:35;;;;;;;19.17;13.60;;;2.50;99.90;;;;;;5033173;28;20250;-74
2021/01/05 04:06:00;;;;;;;22.37;15.03;;;2.40;99.90;;;;;;5034471;28;20188;-73
2021/01/05 04:08:29;;;;;;;23.57;14.83;;;2.20;99.90;;;;;;5034433;28;20199;-73
2021/01/05 04:10:54;;;;;;;20.83;13.90;;;2.20;99.90;;;;;;5034371;28;20185;-73
2021/01/05 04:13:20;;;;;;;21.50;14.13;;;2.20;99.90;;;;;;5034028;28;20203;-73
2021/01/05 04:15:46;;;;;;;23.83;14.17;;;2.20;99.90;;;;;;5034278;28;20258;-74
2021/01/05 04:18:12;;;;;;;23.47;15.23;;;2.40;99.90;;;;;;5034040;28;20182;-73
2021/01/05 04:20:37;;;;;;;24.20;15.02;;;2.10;99.90;;;;;;5034177;28;20180;-73
2021/01/05 04:23:03;;;;;;;20.00;13.67;;;2.10;99.90;;;;;;5033618;28;20645;-73
2021/01/05 04:25:29;;;;;;;21.33;15.63;;;2.20;99.90;;;;;;5034091;28;20176;-72
2021/01/05 04:27:55;;;;;;;22.75;15.48;;;2.20;99.90;;;;;;5034041;28;20508;-74
2021/01/05 04:30:24;;;;;;;22.10;14.98;;;2.20;99.90;;;;;;5032660;28;20290;-73
2021/01/05 04:32:52;;;;;;;21.40;14.25;;;2.10;99.90;;;;;;5032405;28;20526;-73
2021/01/05 04:35:19;;;;;;;21.77;13.85;;;2.00;99.90;;;;;;5033945;28;20182;-73
2021/01/05 04:37:46;;;;;;;22.33;14.65;;;2.00;99.90;;;;;;5033207;28;20271;-73
2021/01/05 04:40:23;;;;;;;25.95;15.05;;;2.10;99.90;;;;;;5033743;28;20230;-73
2021/01/05 04:43:04;;;;;;;24.50;14.63;;;2.00;99.90;;;;;;5033836;28;20175;-72
2021/01/05 04:45:30;;;;;;;23.73;15.75;;;2.00;99.90;;;;;;5034014;28;20170;-73
2021/01/05 04:48:19;;;;;;;20.10;12.98;;;2.00;99.90;;;;;;5033716;28;20654;-74
2021/01/05 04:50:52;;;;;;;22.85;14.52;;;2.10;99.90;;;;;;5033715;28;20186;-73
2021/01/05 04:53:23;;;;;;;20.45;14.27;;;2.20;99.90;;;;;;5033381;28;20203;-73
2021/01/05 04:56:09;;;;;;;21.42;15.32;;;2.30;99.90;;;;;;5033725;28;20299;-73
2021/01/05 04:58:46;;;;;;;21.10;14.55;;;2.20;99.90;;;;;;5033457;28;20266;-73
2021/01/05 05:01:33;;;;;;;24.40;14.85;;;2.10;99.90;;;;;;5033560;28;20661;-73
2021/01/05 05:04:24;;;;;;;23.45;14.50;;;2.10;99.90;;;;;;5033069;28;20234;-73
2021/01/05 05:06:56;;;;;;;26.85;15.10;;;2.00;99.90;;;;;;5033576;28;20184;-73
2021/01/05 05:09:50;;;;;;;24.33;15.00;;;2.10;99.90;;;;;;5033472;28;20254;-73
2021/01/05 05:12:37;;;;;;;21.42;15.00;;;2.10;99.90;;;;;;5033304;28;20183;-73
2021/01/05 05:15:08;;;;;;;24.02;14.98;;;2.10;99.90;;;;;;5032873;28;20198;-73
2021/01/05 05:17:55;;;;;;;19.75;13.70;;;1.90;99.90;;;;;;5033380;28;20601;-74
2021/01/05 05:20:56;;;;;;;24.00;15.07;;;1.90;99.90;;;;;;5031994;28;20188;-74
2021/01/05 05:23:40;;;;;;;21.92;14.48;;;2.10;99.90;;;;;;5032778;28;20660;-72
2021/01/05 05:26:23;;;;;;;26.70;15.60;;;2.10;99.90;;;;;;5033189;28;20179;-74
2021/01/05 05:28:55;;;;;;;25.45;15.23;;;2.20;99.90;;;;;;5033032;28;20173;-74
2021/01/05 05:31:24;;;;;;;26.40;14.75;;;2.00;99.90;;;;;;5033105;28;20486;-72
2021/01/05 05:33:53;;;;;;;23.85;15.38;;;2.20;99.90;;;;;;5032732;28;20286;-73
2021/01/05 05:36:51;;;;;;;24.58;16.20;;;2.30;99.90;;;;;;5033097;28;20196;-72
2021/01/05 05:39:47;;;;;;;21.50;13.40;;;2.20;99.90;;;;;;5033123;28;20171;-74
2021/01/05 05:42:41;;;;;;;25.63;15.23;;;2.20;99.90;;;;;;5031699;28;20204;-73
2021/01/05 05:45:17;;;;;;;22.08;15.60;;;2.20;99.90;;;;;;5032990;28;20195;-73
2021/01/05 05:48:14;;;;;;;25.33;14.85;;;2.10;99.90;;;;;;5033123;28;20497;-73
2021/01/05 05:50:49;;;;;;;23.13;14.93;;;2.20;99.90;;;;;;5037075;28;20220;-73
2021/01/05 05:53:18;;;;;;;25.70;16.05;;;2.20;99.90;;;;;;5036801;28;20275;-74
2021/01/05 05:55:46;;;;;;;27.92;17.63;;;2.20;99.90;;;;;;5037033;28;20670;-74
2021/01/05 05:58:21;;;;;;;25.58;16.70;;;2.40;99.90;;;;;;5036911;28;20167;-73
2021/01/05 06:00:50;;;;;;;26.27;18.10;;;2.40;99.90;;;;;;5036848;28;20171;-74
2021/01/05 06:03:18;;;;;;;25.45;16.73;;;2.40;99.90;;;;;;5036302;28;20565;-72
2021/01/05 06:05:44;;;;;;;25.52;15.20;;;2.30;99.90;;;;;;5036832;28;20199;-73
2021/01/05 06:08:12;;;;;;;23.67;15.83;;;2.30;99.90;;;;;;5036801;28;20174;-73
2021/01/05 06:10:38;;;;;;;21.55;15.45;;;2.20;99.90;;;;;;5036753;28;20409;-73
2021/01/05 06:13:05;;;;;;;27.40;15.90;;;2.30;99.90;;;;;;5036022;28;20172;-72
2021/01/05 06:15:33;;;;;;;21.45;16.05;;;2.40;99.90;;;;;;5036697;28;20533;-73
2021/01/05 06:18:03;;;;;;;28.15;16.45;;;2.40;99.90;;;;;;5036670;28;20199;-72
2021/01/05 06:20:28;;;;;;;26.55;16.85;;;2.40;99.90;;;;;;5037325;28;20677;-72
2021/01/05 06:22:55;;;;;;;22.13;16.50;;;2.20;99.90;;;;;;5035818;28;20181;-73
2021/01/05 06:25:20;;;;;;;24.45;16.77;;;2.40;99.90;;;;;;5036255;28;20289;-73
2021/01/05 06:27:46;;;;;;;25.93;16.20;;;2.40;99.90;;;;;;5036398;28;20253;-72
2021/01/05 06:30:12;;;;;;;30.00;16.00;;;2.30;99.90;;;;;;5036299;28;20457;-72
2021/01/05 06:32:38;;;;;;;21.45;13.65;;;2.20;99.90;;;;;;5036150;28;20187;-73
2021/01/05 06:35:04;;;;;;;25.40;15.40;;;2.30;99.90;;;;;;5035609;28;20295;-73
2021/01/05 06:37:30;;;;;;;23.13;15.60;;;2.20;99.90;;;;;;5036185;28;20670;-73
2021/01/05 06:39:56;;;;;;;27.10;16.00;;;2.40;99.90;;;;;;5036259;28;20272;-74
2021/01/05 06:42:21;;;;;;;25.60;16.00;;;2.30;99.90;;;;;;5036092;28;20190;-74
2021/01/05 06:44:47;;;;;;;25.07;15.00;;;2.30;99.90;;;;;;5035843;28;20273;-73
2021/01/05 06:47:13;;;;;;;24.33;15.47;;;2.30;99.90;;;;;;5036223;28;20683;-73
2021/01/05 06:49:39;;;;;;;22.50;14.65;;;2.40;99.90;;;;;;5036305;28;20178;-72
2021/01/05 06:52:05;;;;;;;25.73;16.43;;;2.30;99.90;;;;;;5035859;28;20175;-73
2021/01/05 06:54:31;;;;;;;22.85;14.63;;;2.40;99.90;;;;;;5035674;28;20442;-73
2021/01/05 06:56:58;;;;;;;25.03;16.03;;;2.60;99.90;;;;;;5035771;28;20207;-74
2021/01/05 06:59:25;;;;;;;22.45;15.00;;;2.40;99.90;;;;;;5035425;28;20434;-73
2021/01/05 07:01:51;;;;;;;26.55;16.73;;;2.50;99.90;;;;;;5035384;28;20182;-74
2021/01/05 07:04:17;;;;;;;22.42;15.00;;;2.50;99.90;;;;;;5035420;28;20648;-73
2021/01/05 07:06:43;;;;;;;24.83;15.73;;;2.40;99.90;;;;;;5035681;28;20210;-73
2021/01/05 07:09:10;;;;;;;22.52;14.23;;;2.40;99.90;;;;;;5034349;28;20458;-73
2021/01/05 07:11:35;;;;;;;27.98;15.82;;;2.40;99.90;;;;;;5035375;28;20260;-74
2021/01/05 07:14:01;;;;;;;27.10;16.20;;;2.50;99.90;;;;;;5035096;28;20213;-72
2021/01/05 07:16:27;;;;;;;22.80;16.43;;;2.60;99.90;;;;;;5035418;28;20238;-73
2021/01/05 07:18:52;;;;;;;28.03;17.10;;;2.70;99.90;;;;;;5035489;28;20168;-74
2021/01/05 07:21:18;;;;;;;21.03;15.57;;;2.60;99.90;;;;;;5035191;28;20652;-72
2021/01/05 07:23:43;;;;;;;25.33;16.57;;;2.40;99.90;;;;;;5034821;28;20279;-73
2021/01/05 07:26:09;;;;;;;25.33;16.20;;;2.40;99.90;;;;;;5035230;28;20189;-74
2021/01/05 07:28:38;;;;;;;25.17;15.80;;;2.40;99.90;;;;;;5035232;28;20687;-73
2021/01/05 07:31:04;;;;;;;25.40;15.30;;;2.40;99.90;;;;;;5035149;28;20219;-72
2021/01/05 07:33:29;;;;;;;23.33;15.17;;;2.40;99.90;;;;;;5034501;28;20205;-72
2021/01/05 07:35:55;;;;;;;20.00;13.90;;;2.50;99.90;;;;;;5035023;28;20193;-73
2021/01/05 07:38:21;;;;;;;22.00;14.30;;;2.60;99.90;;;;;;5033996;28;20180;-72
2021/01/05 07:40:46;;;;;;;26.33;16.83;;;2.50;99.90;;;;;;5035024;28;20550;-72
2021/01/05 07:43:12;;;;;;;23.20;14.67;;;2.50;99.90;;;;;;5034559;28;20182;-71
2021/01/05 07:45:37;;;;;;;24.43;15.20;;;2.50;99.90;;;;;;5034615;28;20178;-71
2021/01/05 07:48:04;;;;;;;21.93;14.70;;;2.40;99.90;;;;;;5034752;28;20698;-72
2021/01/05 07:50:29;;;;;;;24.10;15.30;;;2.60;99.90;;;;;;5034947;28;20173;-71
2021/01/05 07:52:55;;;;;;;25.17;15.53;;;2.60;99.90;;;;;;5034468;28;20276;-72
2021/01/05 07:55:23;;;;;;;22.83;15.40;;;2.50;99.90;;;;;;5050046;28;20175;-72
2021/01/05 07:57:51;;;;;;;17.60;12.95;;;2.50;99.90;;;;;;5054705;28;20211;-71
2021/01/05 08:00:28;;;;;;;27.45;15.07;;;2.40;99.90;;;;;;5052461;28;20203;-72
2021/01/05 08:02:54;;;;;;;24.98;15.48;;;2.40;99.90;;;;;;5053355;28;20166;-72
2021/01/05 08:05:22;;;;;;;25.73;16.10;;;2.50;99.90;;;;;;5054177;28;20620;-71
2021/01/05 08:07:48;;;;;;;25.92;14.85;;;2.60;99.90;;;;;;5054083;28;20640;-72
2021/01/05 08:10:17;;;;;;;24.23;14.97;;;2.70;99.90;;;;;;5052953;28;20180;-72
2021/01/05 08:12:43;;;;;;;23.52;14.93;;;2.80;99.90;;;;;;5052891;28;20414;-71
2021/01/05 08:15:12;;;;;;;23.20;14.70;;;2.60;99.90;;;;;;5053954;28;20200;-74
2021/01/05 08:17:38;;;;;;;23.80;13.73;;;2.60;99.90;;;;;;5054183;28;20245;-74
2021/01/05 08:20:04;;;;;;;23.37;15.43;;;2.80;99.90;;;;;;5052917;28;20641;-78
2021/01/05 08:22:30;;;;;;;20.85;14.65;;;2.60;99.90;;;;;;5053997;28;20176;-77
2021/01/05 08:24:55;;;;;;;22.77;14.50;;;2.70;99.90;;;;;;5053696;28;20188;-71
2021/01/05 08:27:21;;;;;;;23.00;15.40;;;2.70;99.90;;;;;;5054065;28;20191;-72
2021/01/05 08:29:47;;;;;;;20.70;14.33;;;2.70;99.90;;;;;;5053814;28;20174;-72
2021/01/05 08:32:12;;;;;;;27.53;14.53;;;2.70;99.90;;;;;;5053801;28;20196;-71
2021/01/05 08:34:38;;;;;;;24.97;15.27;;;2.80;99.90;;;;;;5053463;28;20222;-71
2021/01/05 08:37:03;;;;;;;21.53;14.17;;;2.70;99.90;;;;;;5053796;28;20204;-71
2021/01/05 08:39:29;;;;;;;24.53;14.60;;;2.80;99.90;;;;;;5053884;28;20638;-72
2021/01/05 08:41:56;;;;;;;20.10;14.07;;;2.80;99.90;;;;;;5053768;28;20680;-72
2021/01/05 08:44:22;;;;;;;24.90;13.88;;;3.00;99.90;;;;;;5053430;28;20616;-72
2021/01/05 08:46:48;;;;;;;25.15;15.93;;;3.10;99.90;;;;;;5053571;28;20180;-72
2021/01/05 08:49:14;;;;;;;24.53;16.17;;;3.20;99.90;;;;;;5053637;28;20636;-73
2021/01/05 08:51:40;;;;;;;23.83;14.37;;;3.30;99.90;;;;;;5053749;28;20174;-72
2021/01/05 08:54:06;;;;;;;25.57;17.37;;;3.40;99.90;;;;;;5043632;28;20907;-73
2021/01/05 08:56:31;;;;;;;29.58;16.90;;;3.30;99.90;;;;;;5043441;28;20272;-72
2021/01/05 08:58:57;;;;;;;25.57;17.27;;;3.40;99.90;;;;;;5041937;28;20282;-72
2021/01/05 09:01:24;;;;;;;29.37;17.37;;;3.30;99.90;;;;;;5043923;28;20237;-72
2021/01/05 09:03:50;;;;;;;21.05;14.75;;;3.30;99.90;;;;;;5041469;28;20201;-73
2021/01/05 09:06:21;;;;;;;19.60;14.30;;;3.20;99.90;;;;;;5042100;28;20181;-73
2021/01/05 09:08:47;;;;;;;26.83;16.55;;;3.10;99.90;;;;;;5042572;28;20181;-73
2021/01/05 09:11:22;;;;;;;23.63;14.10;;;3.00;99.90;;;;;;5042331;28;20734;-72
2021/01/05 09:13:48;;;;;;;26.35;14.55;;;3.10;99.90;;;;;;5042244;28;20857;-72
2021/01/05 09:16:28;;;;;;;26.40;15.07;;;3.40;99.90;;;;;;5041797;28;20289;-72
2021/01/05 09:18:55;;;;;;;24.95;14.65;;;3.30;99.90;;;;;;5043475;28;20166;-72
2021/01/05 09:21:22;;;;;;;28.70;16.17;;;3.30;99.90;;;;;;5040460;28;20209;-73
2021/01/05 09:23:52;;;;;;;23.25;15.80;;;3.20;99.90;;;;;;5042173;28;20217;-72
2021/01/05 09:26:33;;;;;;;29.65;15.63;;;3.20;99.90;;;;;;5043543;28;20259;-73
2021/01/05 09:29:00;;;;;;;25.13;15.23;;;3.30;99.90;;;;;;5043781;28;20172;-73
2021/01/05 09:31:26;;;;;;;29.50;16.73;;;3.10;99.90;;;;;;5042363;28;20178;-73
2021/01/05 09:33:52;;;;;;;24.40;16.03;;;3.20;99.90;;;;;;5040916;28;20651;-72
2021/01/05 09:36:18;;;;;;;24.57;16.23;;;3.20;99.90;;;;;;5043571;28;20243;-72
2021/01/05 09:38:45;;;;;;;22.25;15.07;;;3.30;99.90;;;;;;5041930;28;20420;-72
2021/01/05 09:41:22;;;;;;;29.45;16.35;;;3.30;99.90;;;;;;5042467;28;20178;-72
2021/01/05 09:43:47;;;;;;;25.55;17.38;;;3.30;99.90;;;;;;5037935;28;20200;-72
2021/01/05 09:46:13;;;;;;;27.33;15.50;;;3.20;99.90;;;;;;5047005;28;20191;-72
2021/01/05 09:48:39;;;;;;;24.77;15.13;;;3.10;99.90;;;;;;5052760;28;20222;-72
2021/01/05 09:51:05;;;;;;;27.33;16.80;;;3.00;99.90;;;;;;5052866;28;20644;-72
2021/01/05 09:53:31;;;;;;;26.63;16.60;;;3.20;99.90;;;;;;5047259;28;20328;-72
2021/01/05 09:55:56;;;;;;;31.10;17.63;;;3.30;99.90;;;;;;5033063;28;20281;-73
2021/01/05 09:58:22;;;;;;;35.30;18.47;;;3.20;99.90;;;;;;5032864;28;20173;-72
2021/01/05 10:00:47;;;;;;;31.57;17.47;;;3.40;99.90;;;;;;5032988;28;20646;-72
2021/01/05 10:03:13;;;;;;;27.60;17.87;;;3.50;99.90;;;;;;5032409;28;20204;-71
2021/01/05 10:05:38;;;;;;;32.20;17.60;;;3.60;99.90;;;;;;5032828;28;20174;-72
2021/01/05 10:08:04;;;;;;;32.60;19.43;;;3.60;99.90;;;;;;5032988;28;20177;-73
2021/01/05 10:10:30;;;;;;;36.80;19.58;;;3.60;99.90;;;;;;5032744;28;20177;-73
2021/01/05 10:12:56;;;;;;;29.23;15.73;;;3.60;99.90;;;;;;5032304;28;20174;-72
2021/01/05 10:15:24;;;;;;;31.87;17.00;;;3.70;99.90;;;;;;5032764;28;20177;-72
2021/01/05 10:17:50;;;;;;;30.90;20.55;;;3.60;99.90;;;;;;5032337;28;20198;-73
2021/01/05 10:20:19;;;;;;;25.85;17.20;;;3.60;99.90;;;;;;5032434;28;20225;-72
2021/01/05 10:22:47;;;;;;;24.27;15.07;;;3.80;99.90;;;;;;5032542;28;20170;-72
2021/01/05 10:25:13;;;;;;;25.65;15.55;;;3.80;99.90;;;;;;5032539;28;20198;-73
2021/01/05 10:27:38;;;;;;;23.10;15.00;;;3.80;99.90;;;;;;5032549;28;20178;-72
2021/01/05 10:30:07;;;;;;;26.33;15.30;;;3.50;99.90;;;;;;5031356;28;20204;-73
2021/01/05 10:32:32;;;;;;;26.88;16.50;;;3.50;99.90;;;;;;5032602;28;20268;-72
2021/01/05 10:34:58;;;;;;;22.70;15.17;;;3.50;99.90;;;;;;5032171;28;20296;-73
2021/01/05 10:37:24;;;;;;;29.33;15.70;;;3.40;99.90;;;;;;5036229;28;20289;-73
2021/01/05 10:39:49;;;;;;;25.07;14.97;;;3.60;99.90;;;;;;5036185;28;20174;-73
2021/01/05 10:42:15;;;;;;;26.70;15.57;;;3.80;99.90;;;;;;5036099;28;20237;-73
2021/01/05 10:44:41;;;;;;;27.60;15.97;;;3.80;99.90;;;;;;5035586;28;20194;-73
2021/01/05 10:47:07;;;;;;;32.67;17.40;;;3.80;99.90;;;;;;5035785;28;20610;-73
2021/01/05 10:49:33;;;;;;;29.92;17.92;;;3.90;99.90;;;;;;5036235;28;20558;-72
2021/01/05 10:52:01;;;;;;;28.08;15.32;;;4.10;99.90;;;;;;5036100;28;20207;-73
2021/01/05 10:54:28;;;;;;;29.63;15.48;;;4.10;99.90;;;;;;5036246;28;20284;-73
2021/01/05 10:57:03;;;;;;;25.42;15.15;;;4.10;99.90;;;;;;5035760;28;20220;-73
2021/01/05 10:59:29;;;;;;;23.33;14.68;;;3.90;99.90;;;;;;5035948;28;20196;-73
2021/01/05 11:01:56;;;;;;;29.00;15.18;;;4.00;99.90;;;;;;5035599;28;20185;-72
2021/01/05 11:04:23;;;;;;;23.73;16.02;;;4.20;99.90;;;;;;5035301;28;20221;-73
2021/01/05 11:06:56;;;;;;;26.85;15.75;;;4.20;99.90;;;;;;5035608;28;20182;-73
2021/01/05 11:09:22;;;;;;;32.28;18.00;;;4.00;99.90;;;;;;5035962;28;20182;-73
2021/01/05 11:11:54;;;;;;;20.88;14.18;;;4.00;99.90;;;;;;5034964;28;20232;-73
2021/01/05 11:14:19;;;;;;;25.38;15.65;;;4.10;99.90;;;;;;5034485;28;20198;-73
2021/01/05 11:16:48;;;;;;;25.37;15.87;;;4.10;99.90;;;;;;5035233;28;20197;-72
2021/01/05 11:19:15;;;;;;;27.60;14.95;;;4.20;99.90;;;;;;5035130;28;20638;-73
2021/01/05 11:21:41;;;;;;;20.52;14.30;;;4.20;99.90;;;;;;5035484;28;20667;-73
2021/01/05 11:24:07;;;;;;;27.60;15.77;;;4.20;99.90;;;;;;5034953;28;20252;-73
2021/01/05 11:26:35;;;;;;;28.88;16.55;;;4.20;99.90;;;;;;5035278;28;20256;-74
2021/01/05 11:29:00;;;;;;;28.23;16.50;;;4.10;99.90;;;;;;5035191;28;20173;-73
2021/01/05 11:31:26;;;;;;;28.37;16.47;;;4.00;99.90;;;;;;5035048;28;20646;-71
2021/01/05 11:33:51;;;;;;;28.30;15.77;;;3.90;99.90;;;;;;5034683;28;20197;-72
2021/01/05 11:36:28;;;;;;;29.87;16.07;;;4.00;99.90;;;;;;5033708;28;20205;-72
2021/01/05 11:38:55;;;;;;;21.48;13.95;;;4.00;99.90;;;;;;5035031;28;20257;-73
2021/01/05 11:41:30;;;;;;;27.85;15.57;;;4.00;99.90;;;;;;5033417;28;20190;-73
2021/01/05 11:43:57;;;;;;;29.38;15.00;;;4.00;99.90;;;;;;5034659;28;20235;-72
2021/01/05 11:46:23;;;;;;;21.70;14.70;;;3.80;99.90;;;;;;5034539;28;20268;-72
2021/01/05 11:48:49;;;;;;;26.58;15.43;;;3.80;99.90;;;;;;5034981;28;20185;-73
2021/01/05 11:51:30;;;;;;;27.60;15.30;;;3.90;99.90;;;;;;5034803;28;20184;-73
2021/01/05 11:53:56;;;;;;;24.77;15.65;;;3.60;99.90;;;;;;5040048;28;20806;-72
2021/01/05 11:56:33;;;;;;;30.85;16.02;;;3.80;99.90;;;;;;5054528;28;20259;-73
2021/01/05 11:58:59;;;;;;;28.58;13.63;;;3.90;99.90;;;;;;5053521;28;20660;-73
2021/01/05 12:01:27;;;;;;;26.98;16.10;;;3.80;99.90;;;;;;5054715;28;20173;-73
2021/01/05 12:03:53;;;;;;;27.17;16.40;;;3.80;99.90;;;;;;5054223;28;20651;-73
2021/01/05 12:06:20;;;;;;;26.25;14.93;;;3.60;99.90;;;;;;5054798;28;20555;-74
2021/01/05 12:08:47;;;;;;;37.15;20.30;;;3.80;99.90;;;;;;5054515;28;20178;-74
2021/01/05 12:11:27;;;;;;;38.80;21.35;;;3.60;99.90;;;;;;5052987;28;20273;-74
2021/01/05 12:13:53;;;;;;;35.92;20.90;;;3.60;99.90;;;;;;5053864;28;20189;-73
2021/01/05 12:16:29;;;;;;;34.70;20.73;;;3.50;99.90;;;;;;5054229;28;20555;-73
2021/01/05 12:18:56;;;;;;;26.40;15.82;;;3.30;99.90;;;;;;5054239;28;20173;-73
2021/01/05 12:21:34;;;;;;;29.92;17.65;;;3.10;99.90;;;;;;5054141;28;20256;-73
2021/01/05 12:24:01;;;;;;;29.40;18.38;;;3.20;99.90;;;;;;5053716;28;20195;-73
2021/01/05 12:26:28;;;;;;;33.63;19.25;;;3.30;99.90;;;;;;5053790;28;20184;-73
2021/01/05 12:28:54;;;;;;;32.20;16.23;;;3.40;99.90;;;;;;5054122;28;20641;-72
2021/01/05 12:31:20;;;;;;;31.70;19.13;;;3.20;99.90;;;;;;5053921;28;20180;-73
2021/01/05 12:33:46;;;;;;;27.25;17.25;;;3.40;99.90;;;;;;5052844;28;20563;-73
2021/01/05 12:36:12;;;;;;;33.30;17.83;;;3.40;99.90;;;;;;5053074;28;20193;-72
2021/01/05 12:38:39;;;;;;;30.98;17.67;;;3.30;99.90;;;;;;5053487;28;20226;-73
2021/01/05 12:41:04;;;;;;;29.17;17.63;;;3.30;99.90;;;;;;5053634;28;20678;-73
2021/01/05 12:43:30;;;;;;;34.60;18.17;;;3.40;99.90;;;;;;5053287;28;20199;-73
2021/01/05 12:45:56;;;;;;;28.17;17.83;;;3.50;99.90;;;;;;5053396;28;20442;-72
2021/01/05 12:48:21;;;;;;;28.80;17.97;;;3.30;99.90;;;;;;5053655;28;20200;-73
2021/01/05 12:50:48;;;;;;;33.53;18.00;;;3.30;99.90;;;;;;5053834;28;20165;-72
2021/01/05 12:53:14;;;;;;;29.63;17.73;;;3.20;99.90;;;;;;5053202;28;20209;-73